createdAt,value
2022-11-29T00:01:22.519Z,17.4
2022-11-29T00:04:24.533Z,15.4
2022-11-29T00:07:26.539Z,15
2022-11-29T00:10:28.471Z,16.4
2022-11-29T00:13:30.440Z,15
2022-11-29T00:16:32.444Z,16.7
2022-11-29T00:19:34.378Z,16.4
2022-11-29T00:22:36.347Z,13.9
2022-11-29T00:25:38.299Z,14.9
2022-11-29T00:28:40.266Z,13.3
2022-11-29T00:31:42.231Z,14.7
2022-11-29T00:34:44.415Z,17
2022-11-29T00:37:46.263Z,17.7
2022-11-29T00:40:48.188Z,16.6
2022-11-29T00:43:50.137Z,15.7
2022-11-29T00:46:52.099Z,13
2022-11-29T00:49:54.062Z,16.8
2022-11-29T00:52:56.020Z,17.7
2022-11-29T00:55:57.988Z,14.3
2022-11-29T00:58:59.956Z,15.1
2022-11-29T01:02:01.939Z,16.2
2022-11-29T01:05:03.886Z,15.3
2022-11-29T01:08:05.848Z,16.9
2022-11-29T01:11:07.827Z,14.8
2022-11-29T01:14:09.784Z,15.5
2022-11-29T01:17:11.748Z,13.5
2022-11-29T01:20:13.753Z,14.1
2022-11-29T01:23:15.718Z,16.8
2022-11-29T01:26:17.683Z,17.8
2022-11-29T01:29:19.634Z,18.2
2022-11-29T01:32:21.607Z,18.5
2022-11-29T01:35:23.576Z,17.6
2022-11-29T01:38:25.544Z,15.4
2022-11-29T01:41:27.524Z,15.6
2022-11-29T01:44:29.482Z,16.8
2022-11-29T01:47:31.445Z,16.8
2022-11-29T01:50:33.437Z,17.6
2022-11-29T01:53:35.380Z,16.6
2022-11-29T01:56:37.346Z,14.4
2022-11-29T01:59:39.302Z,15.4
2022-11-29T02:02:41.341Z,13
2022-11-29T02:05:43.239Z,15
2022-11-29T02:08:45.192Z,15.3
2022-11-29T02:11:47.176Z,15.7
2022-11-29T02:14:49.122Z,15.6
2022-11-29T02:17:51.099Z,15.1
2022-11-29T02:20:53.112Z,14.8
2022-11-29T02:23:55.060Z,15.5
2022-11-29T02:26:57.021Z,14.8
2022-11-29T02:29:58.988Z,14.8
2022-11-29T02:33:00.951Z,13.8
2022-11-29T02:36:02.917Z,14.7
2022-11-29T02:39:04.874Z,14.9
2022-11-29T02:42:06.841Z,14.2
2022-11-29T02:45:08.806Z,13.4
2022-11-29T02:48:10.758Z,15
2022-11-29T02:51:12.752Z,13.3
2022-11-29T02:54:14.703Z,13.9
2022-11-29T02:57:16.669Z,14.9
2022-11-29T03:00:18.633Z,15.5
2022-11-29T03:03:20.601Z,13.9
2022-11-29T03:06:22.623Z,16.3
2022-11-29T03:09:24.568Z,16.9
2022-11-29T03:12:26.538Z,18.4
2022-11-29T03:15:28.557Z,15.5
2022-11-29T03:18:30.493Z,17.9
2022-11-29T03:21:32.437Z,18.5
2022-11-29T03:24:34.379Z,18.3
2022-11-29T03:27:36.355Z,17.8
2022-11-29T03:30:38.361Z,20.8
2022-11-29T03:33:40.270Z,17.7
2022-11-29T03:36:42.246Z,14.8
2022-11-29T03:39:44.196Z,16.2
2022-11-29T03:42:46.172Z,14.3
2022-11-29T03:45:48.253Z,17.3
2022-11-29T03:48:50.116Z,16.9
2022-11-29T03:51:52.062Z,17.4
2022-11-29T03:54:54.028Z,18.3
2022-11-29T03:57:56.003Z,18.2
2022-11-29T04:00:57.967Z,16.3
2022-11-29T04:03:59.925Z,17.4
2022-11-29T04:07:01.890Z,17.6
2022-11-29T04:10:03.832Z,16.5
2022-11-29T04:13:05.803Z,15.4
2022-11-29T04:16:07.830Z,15.4
2022-11-29T04:19:09.750Z,15.8
2022-11-29T04:22:11.711Z,16.8
2022-11-29T04:25:13.670Z,15.4
2022-11-29T04:28:15.639Z,15.6
2022-11-29T04:31:17.645Z,15
2022-11-29T04:34:19.577Z,17
2022-11-29T04:37:21.514Z,16.1
2022-11-29T04:40:23.488Z,16.9
2022-11-29T04:43:25.436Z,18.7
2022-11-29T04:46:27.434Z,16
2022-11-29T04:49:29.365Z,17.2
2022-11-29T04:52:31.311Z,15.9
2022-11-29T04:55:33.289Z,14.9
2022-11-29T04:58:35.243Z,15.5
2022-11-29T05:01:37.275Z,14.7
2022-11-29T05:04:39.182Z,16.4
2022-11-29T05:07:41.191Z,17.9
2022-11-29T05:10:43.130Z,18.7
2022-11-29T05:13:45.087Z,16.5
2022-11-29T05:16:47.053Z,15.8
2022-11-29T05:19:49.005Z,19.6
2022-11-29T05:22:50.977Z,17.1
2022-11-29T05:25:52.958Z,17.8
2022-11-29T05:28:54.927Z,17.8
2022-11-29T05:31:56.882Z,15.3
2022-11-29T05:34:58.850Z,15.4
2022-11-29T05:38:00.811Z,16.1
2022-11-29T05:41:02.794Z,18.4
2022-11-29T05:44:04.752Z,19.4
2022-11-29T05:47:06.710Z,16.3
2022-11-29T05:50:08.668Z,15.4
2022-11-29T05:53:10.642Z,18.2
2022-11-29T05:56:13.235Z,17.1
2022-11-29T05:59:14.589Z,19.1
2022-11-29T06:02:16.584Z,18.4
2022-11-29T06:05:18.494Z,15.6
2022-11-29T06:08:20.453Z,18.1
2022-11-29T06:11:22.406Z,20.8
2022-11-29T06:14:24.375Z,21.3
2022-11-29T06:17:26.353Z,21.2
2022-11-29T06:20:28.299Z,20.2
2022-11-29T06:23:30.259Z,19.2
2022-11-29T06:26:32.297Z,16.6
2022-11-29T06:29:34.179Z,17.7
2022-11-29T06:32:36.162Z,19.7
2022-11-29T06:35:38.135Z,20.7
2022-11-29T06:38:40.099Z,19.8
2022-11-29T06:41:42.054Z,17.4
2022-11-29T06:44:44.145Z,19.8
2022-11-29T06:47:45.981Z,18.6
2022-11-29T06:50:47.961Z,21.9
2022-11-29T06:53:49.922Z,19.7
2022-11-29T06:56:51.878Z,20.5
2022-11-29T06:59:53.852Z,22.1
2022-11-29T07:02:55.819Z,21.9
2022-11-29T07:05:57.788Z,22
2022-11-29T07:08:59.747Z,19.8
2022-11-29T07:12:01.723Z,19.8
2022-11-29T07:15:03.682Z,20.7
2022-11-29T07:18:05.651Z,18.1
2022-11-29T07:21:07.625Z,19.4
2022-11-29T07:24:09.568Z,19.9
2022-11-29T07:27:11.558Z,16.9
2022-11-29T07:30:13.515Z,19.7
2022-11-29T07:33:15.498Z,19.4
2022-11-29T07:36:17.456Z,20.9
2022-11-29T07:39:19.443Z,22
2022-11-29T07:42:21.370Z,19.1
2022-11-29T07:45:23.341Z,20.4
2022-11-29T07:48:25.302Z,20.6
2022-11-29T07:51:27.277Z,18.1
2022-11-29T07:54:29.254Z,20.5
2022-11-29T07:57:31.224Z,20
2022-11-29T08:00:33.242Z,22.2
2022-11-29T08:03:35.159Z,21.5
2022-11-29T08:06:37.113Z,22.6
2022-11-29T08:09:39.115Z,23.9
2022-11-29T08:12:41.085Z,23.7
2022-11-29T08:15:43.041Z,23.2
2022-11-29T08:18:45.001Z,22.3
2022-11-29T08:21:47.002Z,23.5
2022-11-29T08:24:48.924Z,23.5
2022-11-29T08:27:50.879Z,22.7
2022-11-29T08:30:52.846Z,23.8
2022-11-29T08:33:54.810Z,24.5
2022-11-29T08:36:56.771Z,24.8
2022-11-29T08:39:58.755Z,23
2022-11-29T08:43:00.718Z,22.9
2022-11-29T08:46:02.778Z,19.6
2022-11-29T08:49:04.637Z,21.1
2022-11-29T08:52:06.635Z,20.6
2022-11-29T08:55:08.574Z,21.4
2022-11-29T08:58:10.505Z,21.7
2022-11-29T09:01:12.621Z,22.5
2022-11-29T09:04:14.424Z,20.7
2022-11-29T09:07:16.432Z,21.7
2022-11-29T09:10:18.558Z,18.3
2022-11-29T09:13:20.311Z,19.6
2022-11-29T09:16:22.297Z,22.1
2022-11-29T09:19:24.231Z,19.2
2022-11-29T09:22:26.196Z,16.8
2022-11-29T09:25:28.164Z,20.9
2022-11-29T09:28:30.120Z,19.8
2022-11-29T09:31:32.250Z,20.5
2022-11-29T09:34:34.063Z,21.4
2022-11-29T09:37:35.997Z,22.2
2022-11-29T09:40:37.955Z,23.3
2022-11-29T09:43:39.937Z,22.2
2022-11-29T09:46:41.896Z,22.9
2022-11-29T09:49:43.899Z,22
2022-11-29T09:52:45.825Z,21.9
2022-11-29T09:55:47.788Z,25.6
2022-11-29T09:58:49.766Z,26.6
2022-11-29T10:01:51.728Z,22.2
2022-11-29T10:04:53.686Z,27.2
2022-11-29T10:07:55.709Z,21
2022-11-29T10:10:57.626Z,23.5
2022-11-29T10:13:59.580Z,24.7
2022-11-29T10:17:01.574Z,27.4
2022-11-29T10:20:03.519Z,25
2022-11-29T10:23:05.497Z,28.8
2022-11-29T10:26:07.442Z,28.7
2022-11-29T10:29:09.415Z,31.8
2022-11-29T10:32:11.381Z,30.7
2022-11-29T10:35:13.344Z,31.3
2022-11-29T10:38:30.109Z,28.8
2022-11-29T10:41:17.242Z,25.2
2022-11-29T10:44:19.214Z,28.4
2022-11-29T10:47:21.163Z,27.8
2022-11-29T10:50:23.126Z,27.3
2022-11-29T10:53:25.095Z,29.6
2022-11-29T10:56:27.061Z,29
2022-11-29T10:59:29.030Z,30.4
2022-11-29T11:02:31.001Z,31.1
2022-11-29T11:05:33.019Z,31.4
2022-11-29T11:08:34.959Z,29.6
2022-11-29T11:11:36.951Z,29.8
2022-11-29T11:14:38.925Z,30.4
2022-11-29T11:17:40.892Z,27.5
2022-11-29T11:20:42.850Z,31.1
2022-11-29T11:23:44.804Z,33.5
2022-11-29T11:26:46.757Z,31.9
2022-11-29T11:29:48.788Z,30
2022-11-29T11:32:50.705Z,33.4
2022-11-29T11:35:52.686Z,33.1
2022-11-29T11:38:54.655Z,33.9
2022-11-29T11:41:56.592Z,35.5
2022-11-29T11:44:58.891Z,35.7
2022-11-29T11:48:00.568Z,34.6
2022-11-29T11:51:02.520Z,32.2
2022-11-29T11:54:04.494Z,28.9
2022-11-29T11:57:06.460Z,28.6
2022-11-29T12:00:08.409Z,29.5
2022-11-29T12:03:10.428Z,28.4
2022-11-29T12:06:12.329Z,27.4
2022-11-29T12:09:14.309Z,27
2022-11-29T12:12:16.323Z,24
2022-11-29T12:15:18.241Z,24.1
2022-11-29T12:18:20.241Z,31.7
2022-11-29T12:21:22.182Z,28.3
2022-11-29T12:24:24.147Z,30.7
2022-11-29T12:27:26.130Z,34.8
2022-11-29T12:30:28.085Z,29.9
2022-11-29T12:33:30.063Z,31.8
2022-11-29T12:36:32.008Z,34.6
2022-11-29T12:39:33.970Z,31.3
2022-11-29T12:42:35.926Z,33.6
2022-11-29T12:45:37.885Z,30.1
2022-11-29T12:48:39.858Z,34.9
2022-11-29T12:51:41.831Z,36.1
2022-11-29T12:54:43.971Z,34.7
2022-11-29T12:57:45.740Z,33.1
2022-11-29T13:00:47.710Z,33.5
2022-11-29T13:03:49.691Z,30.1
2022-11-29T13:06:51.641Z,27.1
2022-11-29T13:09:53.617Z,25.9
2022-11-29T13:12:55.579Z,25.6
2022-11-29T13:15:57.615Z,25.1
2022-11-29T13:18:59.518Z,27.1
2022-11-29T13:22:01.491Z,27.3
2022-11-29T13:25:03.473Z,26
2022-11-29T13:28:05.441Z,27.3
2022-11-29T13:31:07.442Z,23.9
2022-11-29T13:34:09.378Z,25.3
2022-11-29T13:37:11.362Z,25.8
2022-11-29T13:40:13.321Z,24.9
2022-11-29T13:43:15.276Z,23.4
2022-11-29T13:46:17.269Z,22.8
2022-11-29T13:49:19.231Z,24.5
2022-11-29T13:52:21.167Z,25.5
2022-11-29T13:55:23.140Z,24.4
2022-11-29T13:58:25.118Z,23
2022-11-29T14:01:27.128Z,24.9
2022-11-29T14:04:29.092Z,27.8
2022-11-29T14:07:31.086Z,22.7
2022-11-29T14:10:33.038Z,21.6
2022-11-29T14:13:34.992Z,20.5
2022-11-29T14:16:36.939Z,25.8
2022-11-29T14:19:38.910Z,24.3
2022-11-29T14:22:40.867Z,26.2
2022-11-29T14:25:51.431Z,20.5
2022-11-29T14:28:44.816Z,25.6
2022-11-29T14:31:46.791Z,20.6
2022-11-29T14:34:48.764Z,23
2022-11-29T14:37:50.711Z,23.2
2022-11-29T14:40:52.674Z,23.4
2022-11-29T14:43:54.645Z,19.8
2022-11-29T14:46:56.709Z,24
2022-11-29T14:49:58.610Z,20.7
2022-11-29T14:53:00.552Z,18.7
2022-11-29T14:56:02.497Z,16.7
2022-11-29T14:59:04.470Z,23.6
2022-11-29T15:02:06.588Z,19.6
2022-11-29T15:05:08.421Z,23.5
2022-11-29T15:08:10.406Z,24
2022-11-29T15:11:12.442Z,20.5
2022-11-29T15:14:14.325Z,20.5
2022-11-29T15:17:16.273Z,19
2022-11-29T15:20:18.266Z,19.5
2022-11-29T15:23:20.263Z,20
2022-11-29T15:26:22.202Z,22.7
2022-11-29T15:29:24.193Z,20.7
2022-11-29T15:32:26.134Z,23.6
2022-11-29T15:35:28.110Z,19.4
2022-11-29T15:38:30.092Z,23.1
2022-11-29T15:41:32.052Z,23.8
2022-11-29T15:44:34.004Z,18.4
2022-11-29T15:47:35.976Z,19.4
2022-11-29T15:50:37.937Z,21.1
2022-11-29T15:53:39.910Z,24
2022-11-29T15:56:41.847Z,22.9
2022-11-29T15:59:43.825Z,19.8
2022-11-29T16:02:45.776Z,22.4
2022-11-29T16:05:47.727Z,24.1
2022-11-29T16:08:49.680Z,25.5
2022-11-29T16:11:51.707Z,23.6
2022-11-29T16:14:53.654Z,23.6
2022-11-29T16:17:55.608Z,24.5
2022-11-29T16:20:57.581Z,25.1
2022-11-29T16:23:59.526Z,24.8
2022-11-29T16:27:01.488Z,25.6
2022-11-29T16:30:03.464Z,26.1
2022-11-29T16:33:05.415Z,25.7
2022-11-29T16:36:07.397Z,26.1
2022-11-29T16:39:09.355Z,25.2
2022-11-29T16:42:11.317Z,22.4
2022-11-29T16:45:13.344Z,23.4
2022-11-29T16:48:15.300Z,22.6
2022-11-29T16:51:17.273Z,24.7
2022-11-29T16:54:19.258Z,23.7
2022-11-29T16:57:21.207Z,22
2022-11-29T17:00:23.173Z,25
2022-11-29T17:03:25.209Z,22.1
2022-11-29T17:06:27.118Z,23.7
2022-11-29T17:09:29.068Z,24.2
2022-11-29T17:12:31.034Z,24.7
2022-11-29T17:15:32.988Z,24.5
2022-11-29T17:18:34.959Z,24.1
2022-11-29T17:21:36.926Z,25.2
2022-11-29T17:24:41.144Z,22.8
2022-11-29T17:27:40.838Z,23.2
2022-11-29T17:30:42.809Z,21
2022-11-29T17:33:44.744Z,20
2022-11-29T17:36:46.717Z,18.7
2022-11-29T17:39:48.739Z,21.2
2022-11-29T17:42:51.469Z,24.7
2022-11-29T17:45:52.664Z,22.7
2022-11-29T17:48:54.561Z,23.4
2022-11-29T17:51:56.540Z,21.8
2022-11-29T17:54:58.517Z,23.6
2022-11-29T17:58:00.471Z,24
2022-11-29T18:01:02.447Z,23.3
2022-11-29T18:04:04.390Z,23
2022-11-29T18:07:06.360Z,19
2022-11-29T18:10:08.328Z,19.9
2022-11-29T18:13:10.298Z,19
2022-11-29T18:16:12.313Z,22.8
2022-11-29T18:19:14.236Z,18.9
2022-11-29T18:22:16.206Z,16.9
2022-11-29T18:25:37.952Z,18.3
2022-11-29T18:28:20.140Z,22.1
2022-11-29T18:31:22.190Z,23.7
2022-11-29T18:34:24.073Z,21.2
2022-11-29T18:37:47.713Z,22.6
2022-11-29T18:40:27.970Z,22.5
2022-11-29T18:43:29.937Z,22.2
2022-11-29T18:46:31.958Z,24.1
2022-11-29T18:49:33.858Z,22.3
2022-11-29T18:52:40.533Z,22.1
2022-11-29T18:55:37.784Z,19.2
2022-11-29T18:58:39.718Z,21
2022-11-29T19:01:41.741Z,21.2
2022-11-29T19:04:43.910Z,19.8
2022-11-29T19:07:45.651Z,18.2
2022-11-29T19:10:47.575Z,18.8
2022-11-29T19:13:49.546Z,19.5
2022-11-29T19:16:51.491Z,20.7
2022-11-29T19:19:53.483Z,18.3
2022-11-29T19:23:00.259Z,19.8
2022-11-29T19:25:57.406Z,20
2022-11-29T19:28:59.374Z,19.9
2022-11-29T19:32:01.433Z,20
2022-11-29T19:35:03.335Z,20.9
2022-11-29T19:38:05.292Z,21.4
2022-11-29T19:41:07.249Z,20.5
2022-11-29T19:44:09.251Z,21.3
2022-11-29T19:47:11.323Z,20.2
2022-11-29T19:50:13.188Z,21.1
2022-11-29T19:53:15.150Z,20.4
2022-11-29T19:56:17.095Z,20
2022-11-29T19:59:19.071Z,20.8
2022-11-29T20:02:21.165Z,21
2022-11-29T20:05:23.026Z,23.5
2022-11-29T20:08:24.936Z,19.6
2022-11-29T20:11:26.914Z,22.2
2022-11-29T20:14:28.891Z,21
2022-11-29T20:17:30.894Z,23.3
2022-11-29T20:20:32.848Z,24.4
2022-11-29T20:23:34.763Z,22.3
2022-11-29T20:26:36.725Z,22.4
2022-11-29T20:29:38.704Z,24.7
2022-11-29T20:32:40.657Z,24.8
2022-11-29T20:35:42.625Z,24.4
2022-11-29T20:38:44.582Z,21.8
2022-11-29T20:41:46.545Z,24.1
2022-11-29T20:44:48.512Z,23.2
2022-11-29T20:47:50.738Z,22.3
2022-11-29T20:50:52.461Z,22.8
2022-11-29T20:53:54.450Z,21.5
2022-11-29T20:56:56.399Z,22.8
2022-11-29T20:59:58.351Z,23.9
2022-11-29T21:03:00.331Z,24.4
2022-11-29T21:06:02.304Z,20.9
2022-11-29T21:09:04.319Z,21.1
2022-11-29T21:12:06.291Z,22.9
2022-11-29T21:15:08.241Z,23.4
2022-11-29T21:18:10.208Z,21.5
2022-11-29T21:21:12.167Z,22.3
2022-11-29T21:24:14.126Z,21.8
2022-11-29T21:27:16.109Z,23.4
2022-11-29T21:30:18.068Z,21.2
2022-11-29T21:33:20.013Z,21.4
2022-11-29T21:36:22.004Z,21.7
2022-11-29T21:39:23.977Z,23.5
2022-11-29T21:42:25.911Z,20.1
2022-11-29T21:45:27.888Z,22.5
2022-11-29T21:48:29.848Z,22.9
2022-11-29T21:51:31.817Z,21.7
2022-11-29T21:54:33.800Z,22.9
2022-11-29T21:57:35.765Z,22.6
2022-11-29T22:00:37.871Z,21.6
2022-11-29T22:03:39.685Z,21.8
2022-11-29T22:06:41.642Z,20.5
2022-11-29T22:09:43.686Z,23.4
2022-11-29T22:12:51.787Z,20.9
2022-11-29T22:15:47.605Z,18.9
2022-11-29T22:18:49.539Z,22.6
2022-11-29T22:21:51.508Z,22.1
2022-11-29T22:24:53.475Z,20.2
2022-11-29T22:27:55.434Z,20.8
2022-11-29T22:30:57.495Z,20.7
2022-11-29T22:33:59.361Z,20.8
2022-11-29T22:37:01.315Z,22
2022-11-29T22:40:03.286Z,20.8
2022-11-29T22:43:05.248Z,21.3
2022-11-29T22:46:07.216Z,21.7
2022-11-29T22:49:09.173Z,21.7
2022-11-29T22:52:11.145Z,21.8
2022-11-29T22:55:13.146Z,22
2022-11-29T22:58:15.060Z,22.6
2022-11-29T23:01:17.057Z,24.3
2022-11-29T23:04:18.996Z,22.6
2022-11-29T23:07:20.980Z,21.2
2022-11-29T23:10:22.909Z,22.2
2022-11-29T23:13:24.883Z,20.5
2022-11-29T23:16:26.866Z,18.9
2022-11-29T23:19:28.794Z,21.1
2022-11-29T23:22:30.750Z,20.5
2022-11-29T23:25:32.722Z,20.9
2022-11-29T23:28:34.701Z,20.8
2022-11-29T23:31:36.676Z,20.6
2022-11-29T23:34:38.628Z,19.5
2022-11-29T23:37:40.587Z,20.6
2022-11-29T23:40:42.523Z,19.5
2022-11-29T23:43:44.489Z,19.5
2022-11-29T23:46:46.468Z,19.3
2022-11-29T23:49:48.424Z,22.8
2022-11-29T23:52:50.372Z,24
2022-11-29T23:55:52.331Z,22.9
2022-11-29T23:58:54.308Z,20.3
